Time;durP1;ratioP1;P1;durP2;ratioP2;P2;SDS_P1;SDS_P2;PMS_P1;PMS_P2;Temp;Humidity;BMP_temperature;BMP_pressure;BME280_temperature;BME280_humidity;BME280_pressure;Samples;Min_cycle;Max_cycle;Signal;HPM_P1;HPM_P2
2022/12/02 00:00:45;;;;;;;318.38;74.47;;;;;;;;;;5031733;28;20102;-72
2022/12/02 00:03:12;;;;;;;327.40;77.55;;;;;;;;;;5020034;28;20482;-71
2022/12/02 00:05:38;;;;;;;299.35;75.72;;;;;;;;;;5021147;28;20037;-71
2022/12/02 00:08:16;;;;;;;319.55;75.10;;;;;;;;;;5020010;28;20120;-71
2022/12/02 00:10:43;;;;;;;336.67;77.00;;;;;;;;;;5003338;28;20037;-71
2022/12/02 00:13:28;;;;;;;328.27;79.35;;;;;;;;;;5010561;28;20034;-71
2022/12/02 00:15:58;;;;;;;314.80;75.60;;;;;;;;;;5029340;28;20028;-71
2022/12/02 00:18:25;;;;;;;326.73;77.95;;;;;;;;;;5014206;28;20057;-72
2022/12/02 00:20:51;;;;;;;312.00;79.70;;;;;;;;;;5036986;28;20022;-72
2022/12/02 00:23:18;;;;;;;329.17;81.38;;;;;;;;;;5023886;28;20113;-72
2022/12/02 00:25:46;;;;;;;336.33;80.35;;;;;;;;;;5018469;28;20029;-71
2022/12/02 00:28:12;;;;;;;338.88;80.47;;;;;;;;;;5012398;28;20064;-71
2022/12/02 00:30:39;;;;;;;327.05;81.47;;;;;;;;;;5009879;28;20091;-71
2022/12/02 00:33:07;;;;;;;334.67;84.60;;;;;;;;;;5016438;28;20084;-71
2022/12/02 00:35:33;;;;;;;344.73;83.47;;;;;;;;;;5027921;28;20029;-71
2022/12/02 00:38:00;;;;;;;347.85;82.88;;;;;;;;;;5017804;28;20057;-71
2022/12/02 00:40:26;;;;;;;355.50;89.57;;;;;;;;;;5020978;28;20041;-71
2022/12/02 00:42:52;;;;;;;342.98;85.18;;;;;;;;;;4996310;28;20057;-71
2022/12/02 00:48:03;;;;;;;351.92;86.43;;;;;;;;;;5021211;28;20160;-70
2022/12/02 00:50:30;;;;;;;353.25;83.20;;;;;;;;;;5011699;28;20041;-70
2022/12/02 00:52:56;;;;;;;350.75;85.75;;;;;;;;;;5003127;28;20053;-70
2022/12/02 00:55:22;;;;;;;337.08;84.55;;;;;;;;;;4993769;28;20037;-71
2022/12/02 00:57:48;;;;;;;336.48;84.03;;;;;;;;;;5018951;28;20478;-71
2022/12/02 01:00:15;;;;;;;341.20;85.00;;;;;;;;;;5037751;28;20033;-71
2022/12/02 01:02:42;;;;;;;341.00;86.45;;;;;;;;;;5019470;28;20048;-70
2022/12/02 01:05:08;;;;;;;314.63;85.38;;;;;;;;;;5025116;28;20095;-70
2022/12/02 01:07:34;;;;;;;324.17;84.43;;;;;;;;;;5004397;28;20108;-71
2022/12/02 01:10:03;;;;;;;309.23;79.97;;;;;;;;;;5018347;28;20120;-70
2022/12/02 01:12:30;;;;;;;303.30;78.38;;;;;;;;;;5006612;28;20034;-72
2022/12/02 01:14:56;;;;;;;309.75;83.85;;;;;;;;;;5027219;28;20171;-69
2022/12/02 01:17:22;;;;;;;283.05;78.20;;;;;;;;;;5025856;28;20105;-70
2022/12/02 01:19:48;;;;;;;284.95;76.25;;;;;;;;;;5026944;28;20029;-69
2022/12/02 01:22:14;;;;;;;283.65;75.72;;;;;;;;;;5038367;28;20026;-71
2022/12/02 01:24:40;;;;;;;291.80;78.15;;;;;;;;;;5039867;28;20301;-70
2022/12/02 01:27:07;;;;;;;292.15;76.28;;;;;;;;;;5009880;28;20382;-71
2022/12/02 01:29:33;;;;;;;272.65;76.43;;;;;;;;;;5025916;28;20064;-72
2022/12/02 01:32:01;;;;;;;277.52;75.95;;;;;;;;;;5001380;28;20033;-71
2022/12/02 01:34:27;;;;;;;266.98;75.60;;;;;;;;;;5041161;28;20028;-71
2022/12/02 01:36:53;;;;;;;270.63;79.68;;;;;;;;;;5034702;28;20021;-71
2022/12/02 01:39:19;;;;;;;266.10;74.25;;;;;;;;;;5036892;28;20117;-70
2022/12/02 01:41:45;;;;;;;256.45;74.53;;;;;;;;;;5017599;28;20034;-70
2022/12/02 01:44:12;;;;;;;270.05;77.18;;;;;;;;;;5022480;28;20026;-71
2022/12/02 01:46:38;;;;;;;241.00;71.05;;;;;;;;;;5021732;28;20159;-71
2022/12/02 01:49:04;;;;;;;241.13;73.03;;;;;;;;;;5026198;28;20069;-71
2022/12/02 01:51:30;;;;;;;246.18;74.07;;;;;;;;;;5022395;28;20033;-71
2022/12/02 01:53:56;;;;;;;247.40;74.05;;;;;;;;;;5024277;28;20033;-71
2022/12/02 01:56:22;;;;;;;237.00;71.18;;;;;;;;;;5027224;28;20108;-71
2022/12/02 01:58:49;;;;;;;232.35;69.68;;;;;;;;;;5008157;28;20032;-72
2022/12/02 02:01:22;;;;;;;242.05;68.00;;;;;;;;;;5018868;28;20036;-72
2022/12/02 02:03:48;;;;;;;228.93;69.63;;;;;;;;;;5004963;28;20051;-71
2022/12/02 02:06:14;;;;;;;225.52;68.88;;;;;;;;;;5024450;28;20025;-71
2022/12/02 02:08:40;;;;;;;215.85;69.13;;;;;;;;;;5023612;28;20119;-71
2022/12/02 02:11:08;;;;;;;224.32;67.15;;;;;;;;;;5020265;28;20204;-72
2022/12/02 02:13:34;;;;;;;210.52;66.15;;;;;;;;;;5024912;28;20172;-72
2022/12/02 02:16:02;;;;;;;210.38;66.47;;;;;;;;;;5009186;28;20509;-71
2022/12/02 02:18:28;;;;;;;202.55;63.15;;;;;;;;;;5024919;28;20087;-71
2022/12/02 02:20:56;;;;;;;196.88;65.45;;;;;;;;;;5028493;28;20029;-71
2022/12/02 02:23:24;;;;;;;207.65;64.75;;;;;;;;;;5025112;28;20024;-71
2022/12/02 02:25:53;;;;;;;193.57;64.18;;;;;;;;;;5008214;28;20444;-72
2022/12/02 02:28:26;;;;;;;205.38;66.28;;;;;;;;;;5005510;28;20033;-71
2022/12/02 02:30:54;;;;;;;201.38;62.55;;;;;;;;;;5026070;28;20072;-72
2022/12/02 02:33:24;;;;;;;203.07;65.22;;;;;;;;;;5022470;28;20029;-71
2022/12/02 02:35:50;;;;;;;197.73;62.33;;;;;;;;;;5025304;28;20022;-71
2022/12/02 02:38:19;;;;;;;197.00;62.38;;;;;;;;;;5020923;28;20056;-71
2022/12/02 02:40:46;;;;;;;199.93;62.92;;;;;;;;;;5010148;28;20028;-71
2022/12/02 02:43:13;;;;;;;195.98;61.42;;;;;;;;;;5007292;28;20033;-71
2022/12/02 02:45:41;;;;;;;187.43;60.95;;;;;;;;;;5009430;28;20041;-71
2022/12/02 02:48:09;;;;;;;191.27;62.05;;;;;;;;;;5021597;28;20037;-71
2022/12/02 02:50:36;;;;;;;189.30;63.55;;;;;;;;;;5009480;28;20030;-71
2022/12/02 02:53:02;;;;;;;185.35;61.88;;;;;;;;;;5021924;28;20026;-72
2022/12/02 02:55:30;;;;;;;182.05;59.05;;;;;;;;;;5026890;28;20037;-71
2022/12/02 02:58:13;;;;;;;175.95;58.70;;;;;;;;;;5021584;28;20117;-70
2022/12/02 03:00:42;;;;;;;175.20;58.65;;;;;;;;;;5021223;28;20025;-71
2022/12/02 03:03:11;;;;;;;179.90;59.20;;;;;;;;;;5034907;28;20024;-71
2022/12/02 03:05:38;;;;;;;167.60;58.13;;;;;;;;;;5008894;28;20030;-71
2022/12/02 03:08:05;;;;;;;176.98;60.33;;;;;;;;;;5005972;28;20042;-70
2022/12/02 03:10:31;;;;;;;174.55;59.38;;;;;;;;;;5028040;28;20331;-71
2022/12/02 03:12:58;;;;;;;182.70;59.28;;;;;;;;;;5027415;28;20135;-71
2022/12/02 03:15:25;;;;;;;168.68;55.65;;;;;;;;;;5027797;28;20028;-70
2022/12/02 03:17:51;;;;;;;162.70;55.97;;;;;;;;;;5023858;28;20029;-71
2022/12/02 03:20:17;;;;;;;178.27;58.47;;;;;;;;;;5009637;28;20021;-71
2022/12/02 03:22:43;;;;;;;174.40;58.60;;;;;;;;;;5022404;28;20039;-71
2022/12/02 03:25:10;;;;;;;175.75;59.38;;;;;;;;;;5025661;28;20033;-70
2022/12/02 03:27:36;;;;;;;161.43;56.72;;;;;;;;;;5025576;28;20053;-71
2022/12/02 03:30:03;;;;;;;164.60;57.58;;;;;;;;;;5025017;28;20485;-71
2022/12/02 03:32:30;;;;;;;167.05;58.03;;;;;;;;;;5024211;28;20037;-71
2022/12/02 03:34:56;;;;;;;161.95;56.65;;;;;;;;;;5024906;28;20108;-71
2022/12/02 03:37:22;;;;;;;166.05;57.00;;;;;;;;;;5005661;28;20256;-70
2022/12/02 03:39:49;;;;;;;174.10;58.65;;;;;;;;;;5023976;28;20032;-71
2022/12/02 03:42:15;;;;;;;173.98;57.40;;;;;;;;;;5021966;28;20115;-70
2022/12/02 03:44:41;;;;;;;160.15;54.58;;;;;;;;;;5024520;28;20371;-71
2022/12/02 03:47:07;;;;;;;187.60;57.13;;;;;;;;;;5009195;28;20033;-70
2022/12/02 03:49:34;;;;;;;161.23;54.75;;;;;;;;;;5007860;28;20030;-70
2022/12/02 03:52:01;;;;;;;173.07;57.95;;;;;;;;;;5015472;28;20235;-70
2022/12/02 03:54:27;;;;;;;165.70;56.05;;;;;;;;;;5005818;28;20366;-71
2022/12/02 03:56:54;;;;;;;160.15;54.75;;;;;;;;;;5018124;28;20395;-71
2022/12/02 03:59:25;;;;;;;167.13;56.30;;;;;;;;;;5023535;28;20163;-71
2022/12/02 04:01:51;;;;;;;165.18;54.42;;;;;;;;;;5019076;28;20048;-72
2022/12/02 04:04:17;;;;;;;160.27;57.55;;;;;;;;;;5025338;28;20073;-71
2022/12/02 04:06:43;;;;;;;166.18;56.50;;;;;;;;;;5001092;28;20033;-71
2022/12/02 04:09:09;;;;;;;169.77;54.00;;;;;;;;;;5020520;28;20474;-71
2022/12/02 04:11:35;;;;;;;162.43;54.88;;;;;;;;;;5024063;28;20042;-71
2022/12/02 04:14:02;;;;;;;170.43;56.70;;;;;;;;;;5005047;28;20049;-71
2022/12/02 04:16:28;;;;;;;173.63;58.67;;;;;;;;;;5022363;28;20028;-71
2022/12/02 04:18:54;;;;;;;164.95;55.83;;;;;;;;;;5020920;28;20038;-71
2022/12/02 04:21:20;;;;;;;163.70;54.90;;;;;;;;;;5004933;28;20343;-71
2022/12/02 04:23:47;;;;;;;171.70;55.42;;;;;;;;;;5023366;28;20100;-71
2022/12/02 04:26:13;;;;;;;171.57;55.60;;;;;;;;;;5023148;28;20053;-70
2022/12/02 04:28:39;;;;;;;150.40;51.47;;;;;;;;;;5025044;28;20049;-71
2022/12/02 04:31:05;;;;;;;152.70;49.85;;;;;;;;;;5024548;28;20112;-71
2022/12/02 04:33:35;;;;;;;160.30;53.80;;;;;;;;;;5021006;28;20037;-71
2022/12/02 04:36:01;;;;;;;144.68;48.35;;;;;;;;;;5007644;28;20026;-71
2022/12/02 04:38:28;;;;;;;150.95;52.58;;;;;;;;;;5023195;28;20029;-71
2022/12/02 04:40:55;;;;;;;152.07;52.38;;;;;;;;;;5024820;28;20040;-70
2022/12/02 04:43:40;;;;;;;127.80;46.05;;;;;;;;;;5023097;28;20349;-70
2022/12/02 04:46:06;;;;;;;121.43;44.17;;;;;;;;;;5026469;28;20286;-71
2022/12/02 04:48:32;;;;;;;126.22;43.55;;;;;;;;;;5022034;28;20049;-70
2022/12/02 04:50:58;;;;;;;118.38;42.00;;;;;;;;;;5002819;28;20045;-70
2022/12/02 04:53:25;;;;;;;126.25;42.95;;;;;;;;;;5006773;28;21244;-71
2022/12/02 04:55:51;;;;;;;119.97;44.17;;;;;;;;;;5025557;28;20052;-70
2022/12/02 04:58:17;;;;;;;116.13;41.70;;;;;;;;;;5020367;28;20099;-71
2022/12/02 05:00:43;;;;;;;122.10;41.33;;;;;;;;;;5024123;28;20133;-71
2022/12/02 05:03:09;;;;;;;120.47;42.67;;;;;;;;;;5020998;28;20042;-70
2022/12/02 05:05:36;;;;;;;128.15;43.90;;;;;;;;;;5024400;28;20030;-71
2022/12/02 05:08:04;;;;;;;131.55;43.92;;;;;;;;;;5021241;28;20037;-70
2022/12/02 05:10:30;;;;;;;127.65;43.10;;;;;;;;;;5025635;28;20117;-72
2022/12/02 05:12:56;;;;;;;126.70;41.85;;;;;;;;;;5019133;28;20036;-71
2022/12/02 05:15:22;;;;;;;134.38;45.75;;;;;;;;;;5022746;28;20041;-70
2022/12/02 05:17:49;;;;;;;128.18;43.55;;;;;;;;;;5022244;28;20026;-71
2022/12/02 05:20:15;;;;;;;145.13;44.63;;;;;;;;;;5022775;28;20045;-71
2022/12/02 05:22:41;;;;;;;138.95;44.25;;;;;;;;;;5021376;28;20053;-70
2022/12/02 05:25:07;;;;;;;134.38;44.13;;;;;;;;;;5021761;28;20129;-70
2022/12/02 05:27:34;;;;;;;145.20;42.95;;;;;;;;;;5022990;28;20427;-71
2022/12/02 05:30:00;;;;;;;143.20;46.28;;;;;;;;;;5005579;28;20022;-71
2022/12/02 05:32:27;;;;;;;135.80;41.95;;;;;;;;;;5000294;28;20038;-70
2022/12/02 05:34:53;;;;;;;142.07;43.75;;;;;;;;;;5022182;28;20041;-70
2022/12/02 05:37:19;;;;;;;134.00;43.78;;;;;;;;;;5004674;28;20125;-71
2022/12/02 05:39:46;;;;;;;147.00;44.13;;;;;;;;;;5022340;28;20033;-71
2022/12/02 05:42:13;;;;;;;132.55;42.80;;;;;;;;;;5018849;28;20037;-71
2022/12/02 05:44:42;;;;;;;126.15;42.80;;;;;;;;;;5021888;28;20042;-69
2022/12/02 05:47:13;;;;;;;126.43;40.25;;;;;;;;;;5020674;28;20045;-71
2022/12/02 05:49:39;;;;;;;122.20;40.50;;;;;;;;;;5024479;28;20072;-70
2022/12/02 05:52:22;;;;;;;108.22;37.92;;;;;;;;;;5002387;28;20037;-70
2022/12/02 05:54:48;;;;;;;121.28;39.50;;;;;;;;;;5020563;28;20038;-69
2022/12/02 05:57:14;;;;;;;116.53;38.08;;;;;;;;;;5015109;28;20151;-70
2022/12/02 05:59:41;;;;;;;120.90;39.45;;;;;;;;;;5018234;28;20025;-70
2022/12/02 06:02:19;;;;;;;120.13;37.80;;;;;;;;;;5025539;28;20116;-69
2022/12/02 06:04:45;;;;;;;117.97;38.33;;;;;;;;;;5028730;28;20483;-68
2022/12/02 06:07:13;;;;;;;119.13;37.45;;;;;;;;;;5005785;28;20033;-68
2022/12/02 06:09:39;;;;;;;107.15;36.53;;;;;;;;;;5026822;28;20037;-69
2022/12/02 06:12:13;;;;;;;119.65;37.85;;;;;;;;;;5027274;28;20349;-69
2022/12/02 06:14:40;;;;;;;110.05;37.58;;;;;;;;;;5019786;28;20087;-68
2022/12/02 06:17:15;;;;;;;117.53;40.83;;;;;;;;;;5024851;28;20025;-70
2022/12/02 06:19:44;;;;;;;105.97;36.80;;;;;;;;;;5021436;28;20470;-69
2022/12/02 06:22:16;;;;;;;112.05;39.40;;;;;;;;;;5000281;28;20474;-69
2022/12/02 06:24:43;;;;;;;117.47;39.22;;;;;;;;;;5001609;28;20073;-70
2022/12/02 06:27:12;;;;;;;104.25;36.47;;;;;;;;;;5004127;28;20061;-69
2022/12/02 06:29:38;;;;;;;112.00;37.78;;;;;;;;;;5022251;28;20025;-69
2022/12/02 06:32:06;;;;;;;105.50;36.10;;;;;;;;;;5016909;28;20033;-68
2022/12/02 06:34:43;;;;;;;102.88;34.28;;;;;;;;;;5022418;28;20116;-69
2022/12/02 06:37:12;;;;;;;95.95;34.67;;;;;;;;;;5024089;28;20057;-69
2022/12/02 06:39:39;;;;;;;104.43;35.45;;;;;;;;;;5026658;28;20033;-69
2022/12/02 06:42:24;;;;;;;96.28;33.72;;;;;;;;;;5022130;28;20053;-68
2022/12/02 06:45:03;;;;;;;96.60;33.95;;;;;;;;;;5020899;28;20037;-69
2022/12/02 06:47:32;;;;;;;88.30;32.65;;;;;;;;;;5020557;28;20038;-69
2022/12/02 06:50:05;;;;;;;89.82;33.45;;;;;;;;;;5024398;28;20100;-69
2022/12/02 06:52:36;;;;;;;88.78;32.05;;;;;;;;;;5019908;28;20461;-69
2022/12/02 06:55:02;;;;;;;89.28;31.92;;;;;;;;;;5025441;28;20158;-69
2022/12/02 06:57:30;;;;;;;89.57;32.58;;;;;;;;;;5022790;28;20033;-69
2022/12/02 06:59:56;;;;;;;87.30;30.75;;;;;;;;;;5005682;28;20521;-69
2022/12/02 07:02:26;;;;;;;74.68;28.77;;;;;;;;;;5019959;28;20492;-69
2022/12/02 07:04:52;;;;;;;80.05;29.85;;;;;;;;;;5025434;28;20037;-69
2022/12/02 07:07:22;;;;;;;85.28;29.80;;;;;;;;;;5021787;28;20061;-68
2022/12/02 07:09:49;;;;;;;75.10;27.73;;;;;;;;;;5025394;28;20029;-69
2022/12/02 07:12:18;;;;;;;76.25;28.67;;;;;;;;;;5022403;28;20465;-69
2022/12/02 07:14:49;;;;;;;72.63;28.98;;;;;;;;;;5022055;28;20111;-69
2022/12/02 07:17:15;;;;;;;;;;;;;;;;;;5005081;28;20035;-69
2022/12/02 07:19:43;;;;;;;83.82;29.80;;;;;;;;;;5021909;28;19913;-69
2022/12/02 07:22:14;;;;;;;69.93;27.42;;;;;;;;;;5020201;28;20108;-69
2022/12/02 07:24:41;;;;;;;73.20;28.10;;;;;;;;;;5011294;28;20065;-69
2022/12/02 07:27:21;;;;;;;87.78;28.50;;;;;;;;;;5021099;28;20108;-69
2022/12/02 07:29:48;;;;;;;71.03;25.67;;;;;;;;;;5015685;28;20033;-68
2022/12/02 07:32:14;;;;;;;71.40;28.75;;;;;;;;;;5020108;28;20072;-69
2022/12/02 07:34:40;;;;;;;70.15;27.77;;;;;;;;;;5020656;28;20044;-69
2022/12/02 07:37:06;;;;;;;73.57;27.65;;;;;;;;;;5021798;28;20029;-69
2022/12/02 07:39:32;;;;;;;66.38;26.35;;;;;;;;;;5019521;28;20057;-69
2022/12/02 07:41:59;;;;;;;75.53;29.10;;;;;;;;;;5022699;28;20056;-69
2022/12/02 07:44:25;;;;;;;81.10;28.88;;;;;;;;;;5026037;28;20041;-69
2022/12/02 07:46:51;;;;;;;77.30;28.80;;;;;;;;;;5004636;28;20075;-68
2022/12/02 07:49:17;;;;;;;70.80;27.15;;;;;;;;;;5025618;28;20446;-69
2022/12/02 07:51:43;;;;;;;82.30;28.90;;;;;;;;;;5019916;28;20056;-69
2022/12/02 07:54:10;;;;;;;78.55;28.73;;;;;;;;;;5007656;28;20460;-69
2022/12/02 07:56:36;;;;;;;73.13;28.52;;;;;;;;;;5021532;28;20041;-69
2022/12/02 07:59:02;;;;;;;71.38;27.45;;;;;;;;;;5020835;28;20128;-68
2022/12/02 08:01:28;;;;;;;77.97;28.15;;;;;;;;;;5002838;28;20056;-70
2022/12/02 08:03:54;;;;;;;66.72;27.27;;;;;;;;;;5020242;28;20067;-68
2022/12/02 08:06:20;;;;;;;65.15;27.80;;;;;;;;;;5019974;28;20030;-70
2022/12/02 08:08:47;;;;;;;68.20;28.95;;;;;;;;;;5002760;28;20519;-70
2022/12/02 08:11:13;;;;;;;70.15;28.08;;;;;;;;;;5025737;28;20452;-68
2022/12/02 08:13:39;;;;;;;66.07;26.95;;;;;;;;;;5015022;28;20049;-69
2022/12/02 08:16:07;;;;;;;72.20;29.33;;;;;;;;;;5019210;28;20033;-70
2022/12/02 08:18:33;;;;;;;69.93;27.42;;;;;;;;;;5012314;28;20045;-68
2022/12/02 08:20:59;;;;;;;71.75;28.20;;;;;;;;;;5018666;28;20120;-69
2022/12/02 08:23:26;;;;;;;63.47;27.17;;;;;;;;;;5019759;28;20026;-69
2022/12/02 08:25:52;;;;;;;74.75;29.33;;;;;;;;;;5016881;28;20165;-70
2022/12/02 08:28:18;;;;;;;69.53;30.05;;;;;;;;;;5020906;28;20140;-69
2022/12/02 08:30:44;;;;;;;65.20;28.00;;;;;;;;;;5016215;28;20045;-69
2022/12/02 08:33:10;;;;;;;68.00;27.05;;;;;;;;;;5021897;28;20041;-69
2022/12/02 08:35:38;;;;;;;72.07;27.88;;;;;;;;;;5022619;28;20029;-69
2022/12/02 08:38:05;;;;;;;70.50;28.02;;;;;;;;;;5029602;28;20399;-69
2022/12/02 08:40:33;;;;;;;67.05;27.75;;;;;;;;;;5035243;28;20048;-69
2022/12/02 08:43:00;;;;;;;60.30;26.70;;;;;;;;;;5014135;28;20069;-69
2022/12/02 08:45:26;;;;;;;69.47;28.60;;;;;;;;;;4998170;28;20034;-69
2022/12/02 08:47:52;;;;;;;62.17;26.83;;;;;;;;;;5023250;28;20037;-68
2022/12/02 08:50:19;;;;;;;66.47;26.98;;;;;;;;;;4995483;28;20409;-69
2022/12/02 08:52:45;;;;;;;68.95;28.95;;;;;;;;;;5015767;28;20048;-69
2022/12/02 08:55:11;;;;;;;67.70;27.88;;;;;;;;;;5023945;28;20536;-69
2022/12/02 08:57:37;;;;;;;60.72;27.02;;;;;;;;;;5019596;28;20060;-69
2022/12/02 09:00:07;;;;;;;62.38;26.27;;;;;;;;;;5024604;28;20042;-70
2022/12/02 09:02:33;;;;;;;79.22;29.92;;;;;;;;;;5018293;28;20115;-69
2022/12/02 09:04:59;;;;;;;63.20;27.20;;;;;;;;;;5028803;28;20033;-71
2022/12/02 09:07:25;;;;;;;65.78;27.35;;;;;;;;;;5022498;28;20346;-70
2022/12/02 09:09:52;;;;;;;70.20;26.55;;;;;;;;;;5026560;28;20029;-70
2022/12/02 09:12:19;;;;;;;69.32;27.00;;;;;;;;;;5011787;28;20112;-69
2022/12/02 09:14:45;;;;;;;66.40;27.45;;;;;;;;;;5023883;28;20164;-69
2022/12/02 09:17:11;;;;;;;65.53;25.85;;;;;;;;;;5012231;28;20061;-69
2022/12/02 09:19:37;;;;;;;64.13;26.58;;;;;;;;;;5017121;28;20451;-69
2022/12/02 09:22:03;;;;;;;70.18;27.58;;;;;;;;;;5025732;28;20041;-69
2022/12/02 09:24:29;;;;;;;66.47;27.38;;;;;;;;;;5020476;28;20029;-70
2022/12/02 09:26:55;;;;;;;67.43;28.00;;;;;;;;;;5020782;28;20033;-69
2022/12/02 09:29:21;;;;;;;65.72;27.27;;;;;;;;;;5012335;28;20037;-69
2022/12/02 09:31:48;;;;;;;61.75;26.15;;;;;;;;;;5009248;28;20091;-69
2022/12/02 09:34:14;;;;;;;62.75;25.73;;;;;;;;;;5012015;28;20026;-69
2022/12/02 09:36:40;;;;;;;60.53;27.02;;;;;;;;;;5015055;28;20061;-69
2022/12/02 09:39:06;;;;;;;65.20;25.73;;;;;;;;;;5013080;28;20034;-69
2022/12/02 09:41:32;;;;;;;65.75;26.40;;;;;;;;;;5011057;28;20052;-69
2022/12/02 09:43:58;;;;;;;68.28;26.15;;;;;;;;;;5021864;28;20048;-68
2022/12/02 09:46:26;;;;;;;63.22;24.90;;;;;;;;;;5029385;28;20045;-69
2022/12/02 09:48:52;;;;;;;65.38;27.15;;;;;;;;;;5013094;28;20111;-69
2022/12/02 09:51:18;;;;;;;66.18;27.27;;;;;;;;;;5025970;28;20034;-70
2022/12/02 09:53:45;;;;;;;68.78;26.70;;;;;;;;;;5024219;28;20049;-69
2022/12/02 09:56:16;;;;;;;67.97;26.92;;;;;;;;;;5031707;28;20042;-68
2022/12/02 09:58:43;;;;;;;61.47;25.70;;;;;;;;;;5025763;28;20041;-68
2022/12/02 10:01:10;;;;;;;66.40;25.80;;;;;;;;;;5020901;28;20049;-70
2022/12/02 10:03:36;;;;;;;63.83;25.73;;;;;;;;;;5020271;28;20021;-70
2022/12/02 10:06:05;;;;;;;67.88;27.67;;;;;;;;;;5019943;28;20025;-70
2022/12/02 10:08:35;;;;;;;65.25;26.17;;;;;;;;;;4968922;28;20576;-69
2022/12/02 10:11:01;;;;;;;61.17;25.58;;;;;;;;;;4972949;28;20061;-70
2022/12/02 10:13:28;;;;;;;66.85;27.00;;;;;;;;;;4998011;28;20057;-69
2022/12/02 10:15:55;;;;;;;63.35;26.05;;;;;;;;;;5022404;28;20041;-70
2022/12/02 10:18:23;;;;;;;62.05;26.02;;;;;;;;;;5022250;28;20116;-69
2022/12/02 10:20:50;;;;;;;65.18;27.30;;;;;;;;;;5026376;28;20398;-69
2022/12/02 10:23:23;;;;;;;61.08;26.40;;;;;;;;;;5013061;28;20136;-69
2022/12/02 10:25:54;;;;;;;67.03;28.20;;;;;;;;;;5021745;28;20095;-70
2022/12/02 10:28:20;;;;;;;;;;;;;;;;;;5021427;28;20030;-69
2022/12/02 10:30:50;;;;;;;74.60;27.60;;;;;;;;;;5018252;28;19913;-69
2022/12/02 10:33:17;;;;;;;68.45;26.70;;;;;;;;;;5011430;28;20045;-68
2022/12/02 10:35:43;;;;;;;68.18;28.35;;;;;;;;;;5025263;28;20038;-69
2022/12/02 10:38:28;;;;;;;71.03;29.25;;;;;;;;;;5024066;28;20100;-69
2022/12/02 10:41:10;;;;;;;75.72;30.33;;;;;;;;;;5021444;28;20026;-69
2022/12/02 10:43:36;;;;;;;74.03;28.10;;;;;;;;;;5020809;28;20047;-69
2022/12/02 10:46:02;;;;;;;81.22;31.02;;;;;;;;;;5026697;28;20033;-70
2022/12/02 10:48:28;;;;;;;78.82;28.17;;;;;;;;;;5024828;28;20137;-69
2022/12/02 10:50:55;;;;;;;80.70;31.27;;;;;;;;;;5022490;28;20288;-70
2022/12/02 10:53:25;;;;;;;76.72;27.67;;;;;;;;;;5020986;28;20029;-69
2022/12/02 10:55:51;;;;;;;83.53;31.27;;;;;;;;;;5027336;28;20107;-69
2022/12/02 10:58:22;;;;;;;80.38;32.47;;;;;;;;;;5017932;28;20406;-69
2022/12/02 11:00:48;;;;;;;86.53;30.40;;;;;;;;;;5038564;28;20039;-69
2022/12/02 11:03:15;;;;;;;75.10;30.55;;;;;;;;;;5034804;28;20029;-69
2022/12/02 11:05:41;;;;;;;79.07;30.15;;;;;;;;;;5034345;28;20052;-69
2022/12/02 11:08:16;;;;;;;83.32;29.70;;;;;;;;;;5040830;28;20034;-70
2022/12/02 11:10:44;;;;;;;82.43;31.23;;;;;;;;;;5017755;28;20305;-68
2022/12/02 11:13:13;;;;;;;89.63;31.95;;;;;;;;;;5016441;28;20040;-69
2022/12/02 11:15:39;;;;;;;77.35;30.05;;;;;;;;;;5023674;28;20038;-69
2022/12/02 11:18:08;;;;;;;78.47;30.10;;;;;;;;;;5022560;28;20532;-69
2022/12/02 11:20:39;;;;;;;78.82;32.00;;;;;;;;;;5028394;28;20074;-70
2022/12/02 11:23:16;;;;;;;77.60;30.23;;;;;;;;;;5022946;28;20116;-70
2022/12/02 11:25:42;;;;;;;76.55;30.05;;;;;;;;;;5014646;28;20515;-70
2022/12/02 11:28:32;;;;;;;72.20;29.48;;;;;;;;;;5017582;28;20080;-68
2022/12/02 11:31:17;;;;;;;79.00;29.58;;;;;;;;;;5000032;28;20069;-69
2022/12/02 11:33:43;;;;;;;81.40;29.70;;;;;;;;;;5013728;28;20032;-69
2022/12/02 11:36:19;;;;;;;77.72;29.40;;;;;;;;;;5010592;28;20042;-69
2022/12/02 11:38:51;;;;;;;80.88;31.42;;;;;;;;;;5017421;28;20480;-69
2022/12/02 11:41:23;;;;;;;79.55;29.50;;;;;;;;;;5017307;28;20642;-69
2022/12/02 11:43:49;;;;;;;;;;;;;;;;;;5017312;28;20030;-69
2022/12/02 11:46:16;;;;;;;81.07;30.48;;;;;;;;;;5024717;28;19912;-68
2022/12/02 11:48:47;;;;;;;73.55;28.73;;;;;;;;;;5021903;28;20132;-68
2022/12/02 11:51:26;;;;;;;71.97;27.80;;;;;;;;;;5022851;28;20113;-69
2022/12/02 11:53:52;;;;;;;77.30;30.23;;;;;;;;;;5022980;28;20053;-69
2022/12/02 11:56:18;;;;;;;80.95;30.25;;;;;;;;;;5020455;28;20601;-69
2022/12/02 11:58:44;;;;;;;86.97;30.75;;;;;;;;;;5021480;28;20040;-69
2022/12/02 12:01:20;;;;;;;83.70;30.85;;;;;;;;;;5015359;28;20105;-69
2022/12/02 12:03:47;;;;;;;84.60;29.45;;;;;;;;;;5021066;28;20033;-70
2022/12/02 12:06:14;;;;;;;73.70;27.95;;;;;;;;;;5016350;28;20406;-70
2022/12/02 12:08:43;;;;;;;80.13;31.02;;;;;;;;;;5018985;28;20057;-68
2022/12/02 12:11:26;;;;;;;90.53;29.88;;;;;;;;;;5021445;28;20038;-70
2022/12/02 12:14:06;;;;;;;86.90;31.45;;;;;;;;;;5022058;28;21737;-70
2022/12/02 12:16:36;;;;;;;84.32;30.05;;;;;;;;;;5025014;28;20030;-70
2022/12/02 12:19:25;;;;;;;91.93;32.77;;;;;;;;;;5023579;28;20129;-70
2022/12/02 12:21:54;;;;;;;95.97;31.90;;;;;;;;;;5017276;28;20295;-70
2022/12/02 12:24:21;;;;;;;87.68;32.38;;;;;;;;;;5007507;28;20037;-70
2022/12/02 12:26:54;;;;;;;93.88;32.05;;;;;;;;;;5011214;28;20100;-69
2022/12/02 12:29:21;;;;;;;93.57;31.60;;;;;;;;;;5018932;28;20021;-69
2022/12/02 12:31:47;;;;;;;82.88;28.67;;;;;;;;;;5030449;28;20049;-70
2022/12/02 12:34:15;;;;;;;85.82;31.35;;;;;;;;;;5029462;28;20034;-70
2022/12/02 12:36:41;;;;;;;87.63;31.33;;;;;;;;;;5030183;28;20052;-70
2022/12/02 12:39:08;;;;;;;90.47;31.50;;;;;;;;;;5029673;28;20025;-69
2022/12/02 12:41:34;;;;;;;96.28;31.75;;;;;;;;;;5025666;28;20056;-69
2022/12/02 12:44:01;;;;;;;87.43;31.40;;;;;;;;;;5028271;28;20034;-69
2022/12/02 12:46:27;;;;;;;86.90;33.35;;;;;;;;;;5026406;28;20029;-70
2022/12/02 12:48:53;;;;;;;92.75;33.17;;;;;;;;;;5023022;28;20063;-70
2022/12/02 12:51:20;;;;;;;89.15;31.33;;;;;;;;;;5030286;28;20124;-69
2022/12/02 12:53:47;;;;;;;80.53;31.73;;;;;;;;;;5028727;28;20055;-69
2022/12/02 12:56:13;;;;;;;80.80;30.60;;;;;;;;;;5023680;28;20056;-69
2022/12/02 12:58:39;;;;;;;82.57;32.17;;;;;;;;;;5028246;28;20060;-69
2022/12/02 13:01:06;;;;;;;82.22;30.17;;;;;;;;;;5021918;28;20038;-70
2022/12/02 13:03:32;;;;;;;86.97;30.80;;;;;;;;;;5010109;28;20030;-70
2022/12/02 13:05:58;;;;;;;93.75;37.03;;;;;;;;;;5010547;28;20071;-70
2022/12/02 13:08:24;;;;;;;82.97;33.90;;;;;;;;;;5021516;28;20034;-70
2022/12/02 13:10:50;;;;;;;82.88;30.42;;;;;;;;;;5029355;28;20045;-70
2022/12/02 13:13:16;;;;;;;88.60;34.40;;;;;;;;;;5033686;28;20045;-69
2022/12/02 13:15:43;;;;;;;89.78;34.42;;;;;;;;;;5028027;28;20064;-70
2022/12/02 13:18:09;;;;;;;99.30;35.67;;;;;;;;;;5047372;28;20077;-70
2022/12/02 13:20:35;;;;;;;83.22;32.15;;;;;;;;;;5040324;28;20038;-70
2022/12/02 13:23:01;;;;;;;86.88;31.48;;;;;;;;;;5029648;28;20037;-69
2022/12/02 13:25:27;;;;;;;96.35;35.75;;;;;;;;;;5032180;28;20045;-70
2022/12/02 13:27:53;;;;;;;98.65;36.55;;;;;;;;;;5036828;28;20366;-69
2022/12/02 13:30:21;;;;;;;86.82;27.77;;;;;;;;;;5024267;28;20025;-70
2022/12/02 13:32:47;;;;;;;71.32;25.65;;;;;;;;;;5029565;28;20026;-69
2022/12/02 13:35:14;;;;;;;82.07;30.45;;;;;;;;;;5029514;28;20470;-70
2022/12/02 13:37:40;;;;;;;65.65;25.35;;;;;;;;;;5029299;28;20061;-70
2022/12/02 13:40:08;;;;;;;76.80;27.65;;;;;;;;;;5024251;28;20098;-70
2022/12/02 13:42:34;;;;;;;67.10;24.35;;;;;;;;;;5023578;28;20053;-69
2022/12/02 13:45:00;;;;;;;88.43;33.92;;;;;;;;;;5027606;28;20057;-70
2022/12/02 13:47:26;;;;;;;72.88;25.05;;;;;;;;;;5028787;28;20041;-70
2022/12/02 13:49:52;;;;;;;72.28;26.65;;;;;;;;;;5026783;28;20120;-70
2022/12/02 13:52:18;;;;;;;78.40;27.42;;;;;;;;;;5005977;28;20030;-70
2022/12/02 13:54:45;;;;;;;76.47;27.58;;;;;;;;;;5026731;28;20057;-70
2022/12/02 13:57:11;;;;;;;71.85;25.15;;;;;;;;;;5017251;28;20057;-69
2022/12/02 13:59:37;;;;;;;62.03;24.05;;;;;;;;;;5017144;28;20033;-70
2022/12/02 14:02:03;;;;;;;67.97;23.50;;;;;;;;;;5022350;28;20049;-70
2022/12/02 14:04:29;;;;;;;68.97;24.10;;;;;;;;;;5023571;28;20052;-70
2022/12/02 14:06:55;;;;;;;53.47;20.20;;;;;;;;;;5020450;28;20078;-70
2022/12/02 14:09:22;;;;;;;55.25;20.40;;;;;;;;;;5007616;28;20565;-69
2022/12/02 14:11:48;;;;;;;48.00;17.63;;;;;;;;;;5002690;28;20033;-68
2022/12/02 14:14:14;;;;;;;58.58;19.98;;;;;;;;;;5023014;28;20135;-70
2022/12/02 14:16:40;;;;;;;48.33;19.40;;;;;;;;;;5023660;28;20037;-71